sensor_id;sensor_type;location;lat;lon;timestamp;P1;durP1;ratioP1;P2;durP2;ratioP2
34200;SDS011;20469;55.638;37.670;2022-11-25T00:01:33;9.73;;;5.17;;
34200;SDS011;20469;55.638;37.670;2022-11-25T00:04:01;10.20;;;5.13;;
34200;SDS011;20469;55.638;37.670;2022-11-25T00:06:33;9.23;;;4.33;;
34200;SDS011;20469;55.638;37.670;2022-11-25T00:09:03;8.83;;;4.77;;
34200;SDS011;20469;55.638;37.670;2022-11-25T00:11:34;10.67;;;5.20;;
34200;SDS011;20469;55.638;37.670;2022-11-25T00:14:02;8.70;;;4.80;;
34200;SDS011;20469;55.638;37.670;2022-11-25T00:16:30;7.97;;;4.87;;
34200;SDS011;20469;55.638;37.670;2022-11-25T00:18:58;8.50;;;4.55;;
34200;SDS011;20469;55.638;37.670;2022-11-25T00:21:27;8.23;;;4.60;;
34200;SDS011;20469;55.638;37.670;2022-11-25T00:24:00;8.55;;;4.53;;
34200;SDS011;20469;55.638;37.670;2022-11-25T00:26:30;7.30;;;4.13;;
34200;SDS011;20469;55.638;37.670;2022-11-25T00:29:00;7.87;;;4.70;;
34200;SDS011;20469;55.638;37.670;2022-11-25T00:31:31;7.27;;;4.27;;
34200;SDS011;20469;55.638;37.670;2022-11-25T00:34:03;8.07;;;4.20;;
34200;SDS011;20469;55.638;37.670;2022-11-25T00:36:32;7.45;;;4.60;;
34200;SDS011;20469;55.638;37.670;2022-11-25T00:39:03;8.57;;;4.63;;
34200;SDS011;20469;55.638;37.670;2022-11-25T00:41:34;9.00;;;4.72;;
34200;SDS011;20469;55.638;37.670;2022-11-25T00:44:18;5.97;;;4.07;;
34200;SDS011;20469;55.638;37.670;2022-11-25T00:49:48;9.18;;;4.57;;
34200;SDS011;20469;55.638;37.670;2022-11-25T00:52:18;7.77;;;4.10;;
34200;SDS011;20469;55.638;37.670;2022-11-25T00:54:55;7.82;;;4.50;;
34200;SDS011;20469;55.638;37.670;2022-11-25T00:57:23;10.23;;;4.70;;
34200;SDS011;20469;55.638;37.670;2022-11-25T00:59:53;8.07;;;4.43;;
34200;SDS011;20469;55.638;37.670;2022-11-25T01:02:21;5.88;;;4.15;;
34200;SDS011;20469;55.638;37.670;2022-11-25T01:04:51;7.32;;;3.85;;
34200;SDS011;20469;55.638;37.670;2022-11-25T01:07:19;8.15;;;4.88;;
34200;SDS011;20469;55.638;37.670;2022-11-25T01:09:47;7.27;;;4.70;;
34200;SDS011;20469;55.638;37.670;2022-11-25T01:12:15;7.33;;;4.00;;
34200;SDS011;20469;55.638;37.670;2022-11-25T01:14:43;6.60;;;4.28;;
34200;SDS011;20469;55.638;37.670;2022-11-25T01:17:10;7.00;;;4.13;;
34200;SDS011;20469;55.638;37.670;2022-11-25T01:19:38;7.13;;;4.10;;
34200;SDS011;20469;55.638;37.670;2022-11-25T01:22:06;7.25;;;4.45;;
34200;SDS011;20469;55.638;37.670;2022-11-25T01:24:35;8.50;;;4.80;;
34200;SDS011;20469;55.638;37.670;2022-11-25T01:27:04;7.95;;;4.53;;
34200;SDS011;20469;55.638;37.670;2022-11-25T01:29:31;9.05;;;5.20;;
34200;SDS011;20469;55.638;37.670;2022-11-25T01:31:59;8.98;;;5.60;;
34200;SDS011;20469;55.638;37.670;2022-11-25T01:34:26;9.98;;;5.53;;
34200;SDS011;20469;55.638;37.670;2022-11-25T01:36:57;9.52;;;5.95;;
34200;SDS011;20469;55.638;37.670;2022-11-25T01:39:28;9.32;;;5.53;;
34200;SDS011;20469;55.638;37.670;2022-11-25T01:41:59;10.35;;;6.10;;
34200;SDS011;20469;55.638;37.670;2022-11-25T01:44:29;11.23;;;6.78;;
34200;SDS011;20469;55.638;37.670;2022-11-25T01:47:00;9.50;;;5.70;;
34200;SDS011;20469;55.638;37.670;2022-11-25T01:49:46;11.55;;;6.05;;
34200;SDS011;20469;55.638;37.670;2022-11-25T01:52:28;10.57;;;6.47;;
34200;SDS011;20469;55.638;37.670;2022-11-25T01:55:01;10.53;;;6.30;;
34200;SDS011;20469;55.638;37.670;2022-11-25T02:00:22;10.57;;;6.27;;
34200;SDS011;20469;55.638;37.670;2022-11-25T02:02:52;9.83;;;6.10;;
34200;SDS011;20469;55.638;37.670;2022-11-25T02:05:23;10.43;;;6.25;;
34200;SDS011;20469;55.638;37.670;2022-11-25T02:08:00;10.05;;;5.97;;
34200;SDS011;20469;55.638;37.670;2022-11-25T02:10:31;10.93;;;6.45;;
34200;SDS011;20469;55.638;37.670;2022-11-25T02:13:03;10.95;;;6.72;;
34200;SDS011;20469;55.638;37.670;2022-11-25T02:15:32;12.27;;;6.93;;
34200;SDS011;20469;55.638;37.670;2022-11-25T02:18:01;13.75;;;6.80;;
34200;SDS011;20469;55.638;37.670;2022-11-25T02:20:30;14.47;;;6.73;;
34200;SDS011;20469;55.638;37.670;2022-11-25T02:23:04;11.10;;;6.00;;
34200;SDS011;20469;55.638;37.670;2022-11-25T02:25:42;11.13;;;6.30;;
34200;SDS011;20469;55.638;37.670;2022-11-25T02:28:14;10.77;;;5.70;;
34200;SDS011;20469;55.638;37.670;2022-11-25T02:30:48;13.15;;;7.05;;
34200;SDS011;20469;55.638;37.670;2022-11-25T02:33:26;11.25;;;6.50;;
34200;SDS011;20469;55.638;37.670;2022-11-25T02:35:55;12.50;;;6.47;;
34200;SDS011;20469;55.638;37.670;2022-11-25T02:38:36;12.77;;;7.00;;
34200;SDS011;20469;55.638;37.670;2022-11-25T02:41:10;13.93;;;7.23;;
34200;SDS011;20469;55.638;37.670;2022-11-25T02:43:42;13.50;;;6.90;;
34200;SDS011;20469;55.638;37.670;2022-11-25T02:46:11;12.18;;;6.50;;
34200;SDS011;20469;55.638;37.670;2022-11-25T02:48:46;13.90;;;7.43;;
34200;SDS011;20469;55.638;37.670;2022-11-25T02:51:34;12.93;;;7.53;;
34200;SDS011;20469;55.638;37.670;2022-11-25T02:54:02;12.30;;;7.13;;
34200;SDS011;20469;55.638;37.670;2022-11-25T02:56:30;11.35;;;7.35;;
34200;SDS011;20469;55.638;37.670;2022-11-25T02:59:03;10.88;;;6.78;;
34200;SDS011;20469;55.638;37.670;2022-11-25T03:01:31;15.00;;;7.82;;
34200;SDS011;20469;55.638;37.670;2022-11-25T03:03:59;13.27;;;7.57;;
34200;SDS011;20469;55.638;37.670;2022-11-25T03:06:27;14.52;;;7.82;;
34200;SDS011;20469;55.638;37.670;2022-11-25T03:08:55;14.68;;;7.97;;
34200;SDS011;20469;55.638;37.670;2022-11-25T03:11:23;12.32;;;7.38;;
34200;SDS011;20469;55.638;37.670;2022-11-25T03:14:11;13.55;;;8.07;;
34200;SDS011;20469;55.638;37.670;2022-11-25T03:16:39;13.30;;;7.70;;
34200;SDS011;20469;55.638;37.670;2022-11-25T03:19:07;13.43;;;8.40;;
34200;SDS011;20469;55.638;37.670;2022-11-25T03:21:37;13.70;;;8.00;;
34200;SDS011;20469;55.638;37.670;2022-11-25T03:24:05;13.77;;;8.05;;
34200;SDS011;20469;55.638;37.670;2022-11-25T03:26:33;13.60;;;7.40;;
34200;SDS011;20469;55.638;37.670;2022-11-25T03:29:03;16.08;;;7.00;;
34200;SDS011;20469;55.638;37.670;2022-11-25T03:31:31;12.80;;;7.00;;
34200;SDS011;20469;55.638;37.670;2022-11-25T03:33:59;11.50;;;6.25;;
34200;SDS011;20469;55.638;37.670;2022-11-25T03:36:29;11.17;;;6.80;;
34200;SDS011;20469;55.638;37.670;2022-11-25T03:38:57;9.30;;;5.57;;
34200;SDS011;20469;55.638;37.670;2022-11-25T03:41:25;9.80;;;5.87;;
34200;SDS011;20469;55.638;37.670;2022-11-25T03:43:53;8.95;;;5.25;;
34200;SDS011;20469;55.638;37.670;2022-11-25T03:46:20;10.00;;;5.70;;
34200;SDS011;20469;55.638;37.670;2022-11-25T03:48:48;11.07;;;5.10;;
34200;SDS011;20469;55.638;37.670;2022-11-25T03:51:19;10.35;;;5.20;;
34200;SDS011;20469;55.638;37.670;2022-11-25T03:53:47;9.70;;;5.27;;
34200;SDS011;20469;55.638;37.670;2022-11-25T03:56:15;11.77;;;5.67;;
34200;SDS011;20469;55.638;37.670;2022-11-25T03:58:43;10.60;;;5.10;;
34200;SDS011;20469;55.638;37.670;2022-11-25T04:01:12;8.83;;;5.50;;
34200;SDS011;20469;55.638;37.670;2022-11-25T04:03:40;9.97;;;5.53;;
34200;SDS011;20469;55.638;37.670;2022-11-25T04:06:08;11.03;;;5.57;;
34200;SDS011;20469;55.638;37.670;2022-11-25T04:08:36;11.23;;;6.17;;
34200;SDS011;20469;55.638;37.670;2022-11-25T04:11:07;11.63;;;5.87;;
34200;SDS011;20469;55.638;37.670;2022-11-25T04:13:35;8.97;;;5.30;;
34200;SDS011;20469;55.638;37.670;2022-11-25T04:16:02;10.77;;;6.07;;
34200;SDS011;20469;55.638;37.670;2022-11-25T04:18:31;12.13;;;6.37;;
34200;SDS011;20469;55.638;37.670;2022-11-25T04:20:58;10.60;;;6.07;;
34200;SDS011;20469;55.638;37.670;2022-11-25T04:23:26;12.93;;;6.83;;
34200;SDS011;20469;55.638;37.670;2022-11-25T04:25:54;13.52;;;6.53;;
34200;SDS011;20469;55.638;37.670;2022-11-25T04:28:22;12.13;;;6.80;;
34200;SDS011;20469;55.638;37.670;2022-11-25T04:30:50;11.80;;;6.47;;
34200;SDS011;20469;55.638;37.670;2022-11-25T04:33:18;14.87;;;7.23;;
34200;SDS011;20469;55.638;37.670;2022-11-25T04:35:46;13.90;;;7.40;;
34200;SDS011;20469;55.638;37.670;2022-11-25T04:38:13;11.43;;;6.80;;
34200;SDS011;20469;55.638;37.670;2022-11-25T04:40:41;13.67;;;7.07;;
34200;SDS011;20469;55.638;37.670;2022-11-25T04:43:09;13.20;;;7.87;;
34200;SDS011;20469;55.638;37.670;2022-11-25T04:45:38;17.10;;;8.70;;
34200;SDS011;20469;55.638;37.670;2022-11-25T04:48:26;15.70;;;8.00;;
34200;SDS011;20469;55.638;37.670;2022-11-25T04:51:00;15.80;;;8.90;;
34200;SDS011;20469;55.638;37.670;2022-11-25T04:53:28;16.70;;;9.17;;
34200;SDS011;20469;55.638;37.670;2022-11-25T04:55:56;18.67;;;9.47;;
34200;SDS011;20469;55.638;37.670;2022-11-25T04:58:24;17.93;;;9.50;;
34200;SDS011;20469;55.638;37.670;2022-11-25T05:01:12;20.10;;;10.03;;
34200;SDS011;20469;55.638;37.670;2022-11-25T05:03:40;19.40;;;10.65;;
34200;SDS011;20469;55.638;37.670;2022-11-25T05:06:15;16.30;;;9.93;;
34200;SDS011;20469;55.638;37.670;2022-11-25T05:08:43;18.83;;;10.35;;
34200;SDS011;20469;55.638;37.670;2022-11-25T05:11:13;18.65;;;10.68;;
34200;SDS011;20469;55.638;37.670;2022-11-25T05:13:41;23.50;;;15.32;;
34200;SDS011;20469;55.638;37.670;2022-11-25T05:16:08;19.02;;;10.75;;
34200;SDS011;20469;55.638;37.670;2022-11-25T05:18:36;18.33;;;10.37;;
34200;SDS011;20469;55.638;37.670;2022-11-25T05:21:07;22.17;;;13.07;;
34200;SDS011;20469;55.638;37.670;2022-11-25T05:23:35;22.23;;;12.00;;
34200;SDS011;20469;55.638;37.670;2022-11-25T05:26:03;20.10;;;11.48;;
34200;SDS011;20469;55.638;37.670;2022-11-25T05:28:33;23.88;;;12.93;;
34200;SDS011;20469;55.638;37.670;2022-11-25T05:31:01;20.50;;;11.38;;
34200;SDS011;20469;55.638;37.670;2022-11-25T05:33:29;20.80;;;11.17;;
34200;SDS011;20469;55.638;37.670;2022-11-25T05:35:58;21.85;;;11.43;;
34200;SDS011;20469;55.638;37.670;2022-11-25T05:38:27;23.45;;;12.02;;
34200;SDS011;20469;55.638;37.670;2022-11-25T05:41:03;23.27;;;12.18;;
34200;SDS011;20469;55.638;37.670;2022-11-25T05:43:33;19.63;;;10.85;;
34200;SDS011;20469;55.638;37.670;2022-11-25T05:46:05;21.13;;;10.90;;
34200;SDS011;20469;55.638;37.670;2022-11-25T05:48:33;20.92;;;10.77;;
34200;SDS011;20469;55.638;37.670;2022-11-25T05:51:01;20.88;;;11.88;;
34200;SDS011;20469;55.638;37.670;2022-11-25T05:53:30;22.60;;;12.00;;
34200;SDS011;20469;55.638;37.670;2022-11-25T05:55:59;22.58;;;11.75;;
34200;SDS011;20469;55.638;37.670;2022-11-25T05:58:29;19.17;;;10.20;;
34200;SDS011;20469;55.638;37.670;2022-11-25T06:00:57;17.90;;;10.40;;
34200;SDS011;20469;55.638;37.670;2022-11-25T06:03:26;21.23;;;10.90;;
34200;SDS011;20469;55.638;37.670;2022-11-25T06:05:57;21.60;;;11.83;;
34200;SDS011;20469;55.638;37.670;2022-11-25T06:08:26;18.45;;;10.93;;
34200;SDS011;20469;55.638;37.670;2022-11-25T06:10:53;19.40;;;10.65;;
34200;SDS011;20469;55.638;37.670;2022-11-25T06:13:21;18.73;;;10.48;;
34200;SDS011;20469;55.638;37.670;2022-11-25T06:15:51;19.48;;;11.43;;
34200;SDS011;20469;55.638;37.670;2022-11-25T06:18:19;17.90;;;9.98;;
34200;SDS011;20469;55.638;37.670;2022-11-25T06:20:54;17.83;;;10.55;;
34200;SDS011;20469;55.638;37.670;2022-11-25T06:23:25;19.65;;;10.50;;
34200;SDS011;20469;55.638;37.670;2022-11-25T06:25:52;16.65;;;9.85;;
34200;SDS011;20469;55.638;37.670;2022-11-25T06:28:20;19.63;;;10.98;;
34200;SDS011;20469;55.638;37.670;2022-11-25T06:30:48;20.30;;;10.55;;
34200;SDS011;20469;55.638;37.670;2022-11-25T06:33:16;18.45;;;10.27;;
34200;SDS011;20469;55.638;37.670;2022-11-25T06:35:47;20.63;;;10.38;;
34200;SDS011;20469;55.638;37.670;2022-11-25T06:38:15;22.88;;;11.25;;
34200;SDS011;20469;55.638;37.670;2022-11-25T06:40:43;20.85;;;10.48;;
34200;SDS011;20469;55.638;37.670;2022-11-25T06:43:10;21.08;;;12.15;;
34200;SDS011;20469;55.638;37.670;2022-11-25T06:45:39;18.73;;;11.18;;
34200;SDS011;20469;55.638;37.670;2022-11-25T06:48:06;22.88;;;10.88;;
34200;SDS011;20469;55.638;37.670;2022-11-25T06:50:34;18.70;;;10.70;;
34200;SDS011;20469;55.638;37.670;2022-11-25T06:53:02;21.05;;;10.98;;
34200;SDS011;20469;55.638;37.670;2022-11-25T06:55:30;21.63;;;11.13;;
34200;SDS011;20469;55.638;37.670;2022-11-25T06:57:59;20.63;;;10.35;;
34200;SDS011;20469;55.638;37.670;2022-11-25T07:00:46;19.13;;;10.55;;
34200;SDS011;20469;55.638;37.670;2022-11-25T07:03:14;22.27;;;11.25;;
34200;SDS011;20469;55.638;37.670;2022-11-25T07:05:42;21.65;;;11.30;;
34200;SDS011;20469;55.638;37.670;2022-11-25T07:08:10;21.90;;;11.05;;
34200;SDS011;20469;55.638;37.670;2022-11-25T07:10:38;23.10;;;11.35;;
34200;SDS011;20469;55.638;37.670;2022-11-25T07:13:06;22.75;;;10.80;;
34200;SDS011;20469;55.638;37.670;2022-11-25T07:15:34;23.70;;;11.38;;
34200;SDS011;20469;55.638;37.670;2022-11-25T07:18:02;22.67;;;11.18;;
34200;SDS011;20469;55.638;37.670;2022-11-25T07:20:29;22.73;;;10.40;;
34200;SDS011;20469;55.638;37.670;2022-11-25T07:22:58;23.38;;;11.63;;
34200;SDS011;20469;55.638;37.670;2022-11-25T07:25:26;21.35;;;11.60;;
34200;SDS011;20469;55.638;37.670;2022-11-25T07:27:56;21.45;;;10.77;;
34200;SDS011;20469;55.638;37.670;2022-11-25T07:30:25;21.25;;;11.38;;
34200;SDS011;20469;55.638;37.670;2022-11-25T07:33:13;23.07;;;11.17;;
34200;SDS011;20469;55.638;37.670;2022-11-25T07:35:41;22.33;;;11.10;;
34200;SDS011;20469;55.638;37.670;2022-11-25T07:38:09;22.25;;;11.48;;
34200;SDS011;20469;55.638;37.670;2022-11-25T07:40:37;22.50;;;12.10;;
34200;SDS011;20469;55.638;37.670;2022-11-25T07:43:05;23.60;;;11.73;;
34200;SDS011;20469;55.638;37.670;2022-11-25T07:45:33;23.27;;;11.15;;
34200;SDS011;20469;55.638;37.670;2022-11-25T07:48:03;21.83;;;10.98;;
34200;SDS011;20469;55.638;37.670;2022-11-25T07:50:32;20.60;;;10.48;;
34200;SDS011;20469;55.638;37.670;2022-11-25T07:53:01;22.17;;;11.65;;
34200;SDS011;20469;55.638;37.670;2022-11-25T07:55:29;19.45;;;11.07;;
34200;SDS011;20469;55.638;37.670;2022-11-25T07:57:58;23.75;;;12.32;;
34200;SDS011;20469;55.638;37.670;2022-11-25T08:00:31;21.95;;;11.63;;
34200;SDS011;20469;55.638;37.670;2022-11-25T08:03:00;24.17;;;12.90;;
34200;SDS011;20469;55.638;37.670;2022-11-25T08:05:28;22.65;;;11.75;;
34200;SDS011;20469;55.638;37.670;2022-11-25T08:07:56;22.98;;;12.00;;
34200;SDS011;20469;55.638;37.670;2022-11-25T08:10:27;21.70;;;11.48;;
34200;SDS011;20469;55.638;37.670;2022-11-25T08:12:55;23.85;;;12.80;;
34200;SDS011;20469;55.638;37.670;2022-11-25T08:15:23;23.38;;;12.10;;
34200;SDS011;20469;55.638;37.670;2022-11-25T08:17:50;22.45;;;11.45;;
34200;SDS011;20469;55.638;37.670;2022-11-25T08:20:19;23.17;;;12.40;;
34200;SDS011;20469;55.638;37.670;2022-11-25T08:22:47;25.30;;;13.02;;
34200;SDS011;20469;55.638;37.670;2022-11-25T08:25:15;23.92;;;11.80;;
34200;SDS011;20469;55.638;37.670;2022-11-25T08:27:43;23.70;;;12.32;;
34200;SDS011;20469;55.638;37.670;2022-11-25T08:30:14;26.20;;;12.25;;
34200;SDS011;20469;55.638;37.670;2022-11-25T08:32:41;23.90;;;12.70;;
34200;SDS011;20469;55.638;37.670;2022-11-25T08:35:09;22.25;;;11.68;;
34200;SDS011;20469;55.638;37.670;2022-11-25T08:37:37;27.30;;;12.50;;
34200;SDS011;20469;55.638;37.670;2022-11-25T08:40:08;23.80;;;12.32;;
34200;SDS011;20469;55.638;37.670;2022-11-25T08:42:37;25.27;;;12.02;;
34200;SDS011;20469;55.638;37.670;2022-11-25T08:45:06;24.40;;;12.75;;
34200;SDS011;20469;55.638;37.670;2022-11-25T08:47:34;22.33;;;11.68;;
34200;SDS011;20469;55.638;37.670;2022-11-25T08:50:06;24.67;;;12.13;;
34200;SDS011;20469;55.638;37.670;2022-11-25T08:52:35;23.73;;;12.25;;
34200;SDS011;20469;55.638;37.670;2022-11-25T08:55:03;26.05;;;12.68;;
34200;SDS011;20469;55.638;37.670;2022-11-25T08:57:31;22.27;;;11.70;;
34200;SDS011;20469;55.638;37.670;2022-11-25T08:59:59;23.27;;;12.80;;
34200;SDS011;20469;55.638;37.670;2022-11-25T09:02:30;23.73;;;12.05;;
34200;SDS011;20469;55.638;37.670;2022-11-25T09:04:59;28.17;;;13.48;;
34200;SDS011;20469;55.638;37.670;2022-11-25T09:07:29;23.33;;;12.35;;
34200;SDS011;20469;55.638;37.670;2022-11-25T09:09:57;23.33;;;12.75;;
34200;SDS011;20469;55.638;37.670;2022-11-25T09:12:24;26.63;;;13.15;;
34200;SDS011;20469;55.638;37.670;2022-11-25T09:14:52;23.35;;;11.50;;
34200;SDS011;20469;55.638;37.670;2022-11-25T09:17:24;27.42;;;13.13;;
34200;SDS011;20469;55.638;37.670;2022-11-25T09:19:53;26.52;;;12.57;;
34200;SDS011;20469;55.638;37.670;2022-11-25T09:22:20;23.98;;;12.70;;
34200;SDS011;20469;55.638;37.670;2022-11-25T09:24:48;23.08;;;11.30;;
34200;SDS011;20469;55.638;37.670;2022-11-25T09:27:17;22.10;;;11.85;;
34200;SDS011;20469;55.638;37.670;2022-11-25T09:29:48;23.95;;;12.43;;
34200;SDS011;20469;55.638;37.670;2022-11-25T09:32:29;24.77;;;11.50;;
34200;SDS011;20469;55.638;37.670;2022-11-25T09:35:23;24.70;;;12.25;;
34200;SDS011;20469;55.638;37.670;2022-11-25T09:37:51;26.58;;;12.80;;
34200;SDS011;20469;55.638;37.670;2022-11-25T09:40:20;20.48;;;10.90;;
34200;SDS011;20469;55.638;37.670;2022-11-25T09:46:36;28.80;;;13.43;;
34200;SDS011;20469;55.638;37.670;2022-11-25T09:55:11;24.52;;;11.70;;
34200;SDS011;20469;55.638;37.670;2022-11-25T10:00:48;37.38;;;16.13;;
34200;SDS011;20469;55.638;37.670;2022-11-25T10:06:11;26.23;;;12.13;;
34200;SDS011;20469;55.638;37.670;2022-11-25T10:08:44;20.88;;;10.07;;
34200;SDS011;20469;55.638;37.670;2022-11-25T10:16:59;14.55;;;7.68;;
34200;SDS011;20469;55.638;37.670;2022-11-25T10:19:49;17.65;;;7.95;;
34200;SDS011;20469;55.638;37.670;2022-11-25T10:22:40;19.58;;;7.15;;
34200;SDS011;20469;55.638;37.670;2022-11-25T10:25:14;12.25;;;5.90;;
34200;SDS011;20469;55.638;37.670;2022-11-25T10:30:33;15.65;;;7.22;;
34200;SDS011;20469;55.638;37.670;2022-11-25T10:33:12;11.48;;;6.15;;
34200;SDS011;20469;55.638;37.670;2022-11-25T10:35:48;21.38;;;9.02;;
34200;SDS011;20469;55.638;37.670;2022-11-25T10:40:51;15.80;;;6.65;;
34200;SDS011;20469;55.638;37.670;2022-11-25T10:43:22;34.65;;;11.85;;
34200;SDS011;20469;55.638;37.670;2022-11-25T10:49:14;21.80;;;7.90;;
34200;SDS011;20469;55.638;37.670;2022-11-25T10:51:51;11.77;;;6.63;;
34200;SDS011;20469;55.638;37.670;2022-11-25T10:54:21;13.98;;;6.32;;
34200;SDS011;20469;55.638;37.670;2022-11-25T10:56:55;17.48;;;7.70;;
34200;SDS011;20469;55.638;37.670;2022-11-25T10:59:30;26.13;;;9.40;;
34200;SDS011;20469;55.638;37.670;2022-11-25T11:04:50;17.63;;;8.15;;
34200;SDS011;20469;55.638;37.670;2022-11-25T11:07:32;15.80;;;7.35;;
34200;SDS011;20469;55.638;37.670;2022-11-25T11:10:12;19.80;;;7.22;;
34200;SDS011;20469;55.638;37.670;2022-11-25T11:15:46;11.20;;;6.30;;
34200;SDS011;20469;55.638;37.670;2022-11-25T11:27:03;10.88;;;5.90;;
34200;SDS011;20469;55.638;37.670;2022-11-25T11:29:41;10.32;;;5.53;;
34200;SDS011;20469;55.638;37.670;2022-11-25T11:32:18;11.27;;;6.47;;
34200;SDS011;20469;55.638;37.670;2022-11-25T11:34:56;10.37;;;6.23;;
34200;SDS011;20469;55.638;37.670;2022-11-25T11:37:37;11.40;;;6.25;;
34200;SDS011;20469;55.638;37.670;2022-11-25T11:46:07;14.57;;;7.00;;
34200;SDS011;20469;55.638;37.670;2022-11-25T11:49:04;13.32;;;6.47;;
34200;SDS011;20469;55.638;37.670;2022-11-25T11:52:00;12.27;;;6.55;;
34200;SDS011;20469;55.638;37.670;2022-11-25T11:54:43;11.20;;;7.00;;
34200;SDS011;20469;55.638;37.670;2022-11-25T12:00:13;11.45;;;6.68;;
34200;SDS011;20469;55.638;37.670;2022-11-25T12:05:33;13.30;;;6.80;;
34200;SDS011;20469;55.638;37.670;2022-11-25T12:08:05;11.77;;;6.35;;
34200;SDS011;20469;55.638;37.670;2022-11-25T12:10:42;9.02;;;5.75;;
34200;SDS011;20469;55.638;37.670;2022-11-25T12:16:18;11.38;;;6.13;;
34200;SDS011;20469;55.638;37.670;2022-11-25T12:21:51;10.85;;;5.35;;
34200;SDS011;20469;55.638;37.670;2022-11-25T12:24:32;7.60;;;4.85;;
34200;SDS011;20469;55.638;37.670;2022-11-25T12:27:07;9.52;;;6.30;;
34200;SDS011;20469;55.638;37.670;2022-11-25T12:32:50;9.25;;;5.63;;
34200;SDS011;20469;55.638;37.670;2022-11-25T12:38:28;15.30;;;5.90;;
34200;SDS011;20469;55.638;37.670;2022-11-25T12:44:03;11.13;;;6.10;;
34200;SDS011;20469;55.638;37.670;2022-11-25T12:46:53;11.52;;;6.30;;
34200;SDS011;20469;55.638;37.670;2022-11-25T12:49:23;10.63;;;6.22;;
34200;SDS011;20469;55.638;37.670;2022-11-25T13:09:48;10.82;;;5.07;;
34200;SDS011;20469;55.638;37.670;2022-11-25T13:12:41;9.10;;;5.15;;
34200;SDS011;20469;55.638;37.670;2022-11-25T13:15:23;7.75;;;4.70;;
34200;SDS011;20469;55.638;37.670;2022-11-25T13:18:01;7.40;;;4.80;;
34200;SDS011;20469;55.638;37.670;2022-11-25T13:20:41;10.30;;;5.43;;
34200;SDS011;20469;55.638;37.670;2022-11-25T13:23:23;8.38;;;4.22;;
34200;SDS011;20469;55.638;37.670;2022-11-25T13:28:55;7.20;;;4.47;;
34200;SDS011;20469;55.638;37.670;2022-11-25T13:31:24;9.40;;;4.47;;
34200;SDS011;20469;55.638;37.670;2022-11-25T13:36:51;6.75;;;3.58;;
34200;SDS011;20469;55.638;37.670;2022-11-25T13:39:29;4.82;;;3.20;;
34200;SDS011;20469;55.638;37.670;2022-11-25T13:44:50;6.65;;;3.63;;
34200;SDS011;20469;55.638;37.670;2022-11-25T13:50:17;6.72;;;3.63;;
34200;SDS011;20469;55.638;37.670;2022-11-25T13:52:56;8.55;;;3.90;;
34200;SDS011;20469;55.638;37.670;2022-11-25T13:55:31;6.95;;;4.05;;
34200;SDS011;20469;55.638;37.670;2022-11-25T13:58:12;7.32;;;4.15;;
34200;SDS011;20469;55.638;37.670;2022-11-25T14:00:58;9.30;;;4.30;;
34200;SDS011;20469;55.638;37.670;2022-11-25T14:03:39;9.30;;;4.88;;
34200;SDS011;20469;55.638;37.670;2022-11-25T14:09:02;6.93;;;4.50;;
34200;SDS011;20469;55.638;37.670;2022-11-25T14:11:39;7.45;;;4.20;;
34200;SDS011;20469;55.638;37.670;2022-11-25T14:14:28;6.80;;;4.03;;
34200;SDS011;20469;55.638;37.670;2022-11-25T14:17:27;5.82;;;4.20;;
34200;SDS011;20469;55.638;37.670;2022-11-25T14:20:13;7.82;;;4.20;;
34200;SDS011;20469;55.638;37.670;2022-11-25T14:23:01;8.02;;;4.85;;
34200;SDS011;20469;55.638;37.670;2022-11-25T14:25:54;6.97;;;4.43;;
34200;SDS011;20469;55.638;37.670;2022-11-25T14:31:19;6.88;;;4.20;;
34200;SDS011;20469;55.638;37.670;2022-11-25T14:34:03;6.95;;;4.38;;
34200;SDS011;20469;55.638;37.670;2022-11-25T14:36:42;9.85;;;4.85;;
34200;SDS011;20469;55.638;37.670;2022-11-25T14:39:18;11.40;;;6.50;;
34200;SDS011;20469;55.638;37.670;2022-11-25T14:42:01;9.18;;;4.88;;
34200;SDS011;20469;55.638;37.670;2022-11-25T14:44:53;9.73;;;5.50;;
34200;SDS011;20469;55.638;37.670;2022-11-25T14:47:26;10.82;;;4.78;;
34200;SDS011;20469;55.638;37.670;2022-11-25T14:49:58;8.40;;;5.28;;
34200;SDS011;20469;55.638;37.670;2022-11-25T14:52:47;6.10;;;4.18;;
34200;SDS011;20469;55.638;37.670;2022-11-25T14:57:59;6.78;;;4.20;;
34200;SDS011;20469;55.638;37.670;2022-11-25T15:00:27;10.68;;;5.57;;
34200;SDS011;20469;55.638;37.670;2022-11-25T15:02:56;7.57;;;4.68;;
34200;SDS011;20469;55.638;37.670;2022-11-25T15:05:31;8.13;;;5.18;;
34200;SDS011;20469;55.638;37.670;2022-11-25T15:08:03;10.40;;;5.30;;
34200;SDS011;20469;55.638;37.670;2022-11-25T15:10:41;10.65;;;5.45;;
34200;SDS011;20469;55.638;37.670;2022-11-25T15:13:26;7.60;;;5.10;;
34200;SDS011;20469;55.638;37.670;2022-11-25T15:16:05;7.70;;;5.05;;
34200;SDS011;20469;55.638;37.670;2022-11-25T15:18:48;7.85;;;5.38;;
34200;SDS011;20469;55.638;37.670;2022-11-25T15:21:26;7.93;;;4.55;;
34200;SDS011;20469;55.638;37.670;2022-11-25T15:24:00;7.82;;;4.82;;
34200;SDS011;20469;55.638;37.670;2022-11-25T15:26:31;7.70;;;4.53;;
34200;SDS011;20469;55.638;37.670;2022-11-25T15:29:05;8.45;;;4.57;;
34200;SDS011;20469;55.638;37.670;2022-11-25T15:31:38;8.43;;;4.53;;
34200;SDS011;20469;55.638;37.670;2022-11-25T15:34:09;8.90;;;4.90;;
34200;SDS011;20469;55.638;37.670;2022-11-25T15:36:41;6.80;;;4.38;;
34200;SDS011;20469;55.638;37.670;2022-11-25T15:41:55;8.18;;;4.90;;
34200;SDS011;20469;55.638;37.670;2022-11-25T15:44:46;7.63;;;4.30;;
34200;SDS011;20469;55.638;37.670;2022-11-25T15:47:26;6.30;;;4.10;;
34200;SDS011;20469;55.638;37.670;2022-11-25T15:49:57;6.05;;;3.63;;
34200;SDS011;20469;55.638;37.670;2022-11-25T15:52:47;10.05;;;4.40;;
34200;SDS011;20469;55.638;37.670;2022-11-25T15:55:19;8.88;;;4.20;;
34200;SDS011;20469;55.638;37.670;2022-11-25T15:58:00;7.20;;;4.03;;
34200;SDS011;20469;55.638;37.670;2022-11-25T16:00:34;7.00;;;4.40;;
34200;SDS011;20469;55.638;37.670;2022-11-25T16:03:16;8.45;;;4.95;;
34200;SDS011;20469;55.638;37.670;2022-11-25T16:08:30;7.05;;;4.75;;
34200;SDS011;20469;55.638;37.670;2022-11-25T16:11:09;8.40;;;4.23;;
34200;SDS011;20469;55.638;37.670;2022-11-25T16:13:43;7.60;;;4.88;;
34200;SDS011;20469;55.638;37.670;2022-11-25T16:16:18;7.20;;;4.78;;
34200;SDS011;20469;55.638;37.670;2022-11-25T16:18:51;7.63;;;4.60;;
34200;SDS011;20469;55.638;37.670;2022-11-25T16:21:40;8.60;;;4.80;;
34200;SDS011;20469;55.638;37.670;2022-11-25T16:26:56;7.50;;;4.28;;
34200;SDS011;20469;55.638;37.670;2022-11-25T16:29:32;7.18;;;4.53;;
34200;SDS011;20469;55.638;37.670;2022-11-25T16:32:12;7.45;;;4.70;;
34200;SDS011;20469;55.638;37.670;2022-11-25T16:34:48;6.43;;;4.50;;
34200;SDS011;20469;55.638;37.670;2022-11-25T16:37:19;7.90;;;4.50;;
34200;SDS011;20469;55.638;37.670;2022-11-25T16:39:47;7.78;;;4.40;;
34200;SDS011;20469;55.638;37.670;2022-11-25T16:42:16;7.60;;;4.60;;
34200;SDS011;20469;55.638;37.670;2022-11-25T16:47:20;9.00;;;4.85;;
34200;SDS011;20469;55.638;37.670;2022-11-25T16:49:57;6.13;;;4.13;;
34200;SDS011;20469;55.638;37.670;2022-11-25T16:52:24;8.98;;;4.55;;
34200;SDS011;20469;55.638;37.670;2022-11-25T16:54:56;6.93;;;4.47;;
34200;SDS011;20469;55.638;37.670;2022-11-25T16:57:28;6.63;;;3.72;;